Time;durP1;ratioP1;P1;durP2;ratioP2;P2;SDS_P1;SDS_P2;PMS_P1;PMS_P2;Temp;Humidity;BMP_temperature;BMP_pressure;BME280_temperature;BME280_humidity;BME280_pressure;Samples;Min_cycle;Max_cycle;Signal;HPM_P1;HPM_P2
2023/03/19 00:01:57;;;;;;;38.70;19.20;;;10.50;99.90;;;;;;5115297;28;20111;-76
2023/03/19 00:04:23;;;;;;;41.33;20.60;;;10.50;99.90;;;;;;5097669;28;20044;-76
2023/03/19 00:06:50;;;;;;;41.00;21.00;;;10.50;99.90;;;;;;5116227;28;20131;-76
2023/03/19 00:09:16;;;;;;;43.73;21.23;;;10.40;99.90;;;;;;5116166;28;20073;-76
2023/03/19 00:11:42;;;;;;;40.45;21.02;;;10.40;99.90;;;;;;5116106;28;20051;-77
2023/03/19 00:14:08;;;;;;;45.53;22.10;;;10.30;99.90;;;;;;5061191;28;20473;-76
2023/03/19 00:16:34;;;;;;;40.42;20.50;;;10.30;99.90;;;;;;5094479;28;20522;-76
2023/03/19 00:19:00;;;;;;;44.25;22.40;;;10.30;99.90;;;;;;5096762;28;20380;-76
2023/03/19 00:21:26;;;;;;;43.95;21.30;;;10.30;99.90;;;;;;5097273;28;20036;-77
2023/03/19 00:23:52;;;;;;;43.63;21.23;;;10.40;99.90;;;;;;5080444;28;20059;-75
2023/03/19 00:26:18;;;;;;;41.97;21.33;;;10.40;99.90;;;;;;5096135;28;20044;-76
2023/03/19 00:28:43;;;;;;;41.05;20.33;;;10.40;99.90;;;;;;5094899;28;20166;-76
2023/03/19 00:31:16;;;;;;;40.75;20.92;;;10.40;99.90;;;;;;5094057;28;20148;-78
2023/03/19 00:33:42;;;;;;;51.40;22.65;;;10.40;99.90;;;;;;5095336;28;20181;-76
2023/03/19 00:36:09;;;;;;;53.17;22.93;;;10.40;99.90;;;;;;5095269;28;20047;-75
2023/03/19 00:38:35;;;;;;;44.80;21.25;;;10.40;99.90;;;;;;5096007;28;20044;-77
2023/03/19 00:41:02;;;;;;;42.88;20.65;;;10.40;99.90;;;;;;5095118;28;20039;-77
2023/03/19 00:43:28;;;;;;;43.80;20.83;;;10.40;99.90;;;;;;5095123;28;20044;-75
2023/03/19 00:45:54;;;;;;;48.50;21.42;;;10.40;99.90;;;;;;5095981;28;20126;-76
2023/03/19 00:48:20;;;;;;;51.10;21.50;;;10.40;99.90;;;;;;5094882;28;20353;-75
2023/03/19 00:50:47;;;;;;;49.22;21.33;;;10.40;99.90;;;;;;5095490;28;20052;-75
2023/03/19 00:53:13;;;;;;;46.30;20.52;;;10.40;99.90;;;;;;5094863;28;20077;-78
2023/03/19 00:55:39;;;;;;;39.00;19.27;;;10.40;99.90;;;;;;5094262;28;20115;-75
2023/03/19 00:58:05;;;;;;;36.72;18.70;;;10.40;99.90;;;;;;5094892;28;20193;-75
2023/03/19 01:00:32;;;;;;;41.28;19.75;;;10.40;99.90;;;;;;5111058;28;20047;-77
2023/03/19 01:02:58;;;;;;;;;;;10.40;99.90;;;;;;5094141;28;20063;-75
2023/03/19 01:05:25;;;;;;;35.50;16.47;;;10.40;99.90;;;;;;5095355;28;19919;-75
2023/03/19 01:07:51;;;;;;;32.65;15.60;;;10.40;99.90;;;;;;5094131;28;20489;-76
2023/03/19 01:10:18;;;;;;;34.00;15.20;;;10.40;99.90;;;;;;5094533;28;20051;-76
2023/03/19 01:12:44;;;;;;;28.85;13.93;;;10.40;99.90;;;;;;5094575;28;20480;-76
2023/03/19 01:15:10;;;;;;;27.67;13.20;;;10.40;99.90;;;;;;5113550;28;20056;-75
2023/03/19 01:17:37;;;;;;;23.77;12.18;;;10.40;99.90;;;;;;5079872;28;20062;-75
2023/03/19 01:20:07;;;;;;;22.63;11.50;;;10.40;99.90;;;;;;5114413;28;20036;-76
2023/03/19 01:22:36;;;;;;;22.42;11.07;;;10.40;99.90;;;;;;5096686;28;20048;-76
2023/03/19 01:25:03;;;;;;;21.88;10.48;;;10.40;99.90;;;;;;5114596;28;20058;-76
2023/03/19 01:27:28;;;;;;;20.00;10.13;;;10.40;99.90;;;;;;5079617;28;20441;-75
2023/03/19 01:29:54;;;;;;;19.48;10.65;;;10.40;99.90;;;;;;5114773;28;20054;-75
2023/03/19 01:32:20;;;;;;;23.17;10.88;;;10.40;99.90;;;;;;5114475;28;20395;-76
2023/03/19 01:34:46;;;;;;;20.95;11.23;;;10.40;99.90;;;;;;5114932;28;20048;-74
2023/03/19 01:37:11;;;;;;;24.48;11.70;;;10.30;99.90;;;;;;5114500;28;20442;-76
2023/03/19 01:39:37;;;;;;;24.85;12.05;;;10.30;99.90;;;;;;5114982;28;20135;-76
2023/03/19 01:42:03;;;;;;;28.58;13.40;;;10.30;99.90;;;;;;5113154;28;20051;-75
2023/03/19 01:44:30;;;;;;;24.17;12.77;;;10.30;99.90;;;;;;5114905;28;20130;-75
2023/03/19 01:47:00;;;;;;;25.35;12.07;;;10.20;99.90;;;;;;5114615;28;20109;-75
2023/03/19 01:49:27;;;;;;;28.98;10.90;;;10.20;99.90;;;;;;5096255;28;20044;-76
2023/03/19 01:51:55;;;;;;;21.00;11.38;;;10.20;99.90;;;;;;5114708;28;20044;-75
2023/03/19 01:54:22;;;;;;;;;;;10.20;99.90;;;;;;5096769;28;20048;-76
2023/03/19 01:56:53;;;;;;;20.75;10.02;;;10.10;99.90;;;;;;5114364;28;20287;-76
2023/03/19 01:59:25;;;;;;;20.75;10.15;;;10.10;99.90;;;;;;5114119;28;20048;-76
2023/03/19 02:02:02;;;;;;;18.80;9.02;;;10.10;99.90;;;;;;5114517;28;20044;-76
2023/03/19 02:04:30;;;;;;;16.75;9.02;;;10.10;99.90;;;;;;5096871;28;20142;-75
2023/03/19 02:06:59;;;;;;;22.52;10.10;;;10.10;99.90;;;;;;5114584;28;20043;-75
2023/03/19 02:09:27;;;;;;;22.23;10.27;;;10.00;99.90;;;;;;5114159;28;20127;-75
2023/03/19 02:11:54;;;;;;;25.25;11.02;;;9.90;99.90;;;;;;5095932;28;20123;-75
2023/03/19 02:14:20;;;;;;;24.95;10.93;;;9.90;99.90;;;;;;5095513;28;20058;-75
2023/03/19 02:16:46;;;;;;;27.58;11.93;;;9.90;99.90;;;;;;5114565;28;20048;-75
2023/03/19 02:19:30;;;;;;;27.42;13.52;;;9.90;99.90;;;;;;5095630;28;20070;-75
2023/03/19 02:21:59;;;;;;;26.83;14.38;;;9.90;99.90;;;;;;5078775;28;20069;-75
2023/03/19 02:24:34;;;;;;;31.75;15.85;;;9.90;99.90;;;;;;5113812;28;20043;-77
2023/03/19 02:27:01;;;;;;;31.45;15.32;;;9.90;99.90;;;;;;5113874;28;20047;-75
2023/03/19 02:29:27;;;;;;;29.67;14.30;;;9.90;99.90;;;;;;5095692;28;20126;-76
2023/03/19 02:31:52;;;;;;;31.25;13.65;;;9.90;99.90;;;;;;5095975;28;20082;-75
2023/03/19 02:34:18;;;;;;;27.80;13.65;;;9.90;99.90;;;;;;5078938;28;20050;-75
2023/03/19 02:36:50;;;;;;;25.70;12.60;;;9.90;99.90;;;;;;5113610;28;20093;-75
2023/03/19 02:39:50;;;;;;;26.75;12.75;;;9.90;99.90;;;;;;5096474;28;20387;-74
2023/03/19 02:42:18;;;;;;;26.38;12.20;;;9.80;99.90;;;;;;5109272;28;20407;-74
2023/03/19 02:44:45;;;;;;;28.67;13.30;;;9.90;99.90;;;;;;5113565;28;20079;-75
2023/03/19 02:47:11;;;;;;;30.75;13.85;;;9.90;99.90;;;;;;5062494;28;20471;-75
2023/03/19 02:49:37;;;;;;;26.35;13.07;;;9.80;99.90;;;;;;5113538;28;20047;-75
2023/03/19 02:52:02;;;;;;;27.73;13.85;;;9.80;99.90;;;;;;5113932;28;20043;-74
2023/03/19 02:54:28;;;;;;;25.75;12.35;;;9.80;99.90;;;;;;5114277;28;20047;-79
2023/03/19 02:56:54;;;;;;;23.00;9.80;;;9.70;99.90;;;;;;5079572;28;20162;-75
2023/03/19 02:59:20;;;;;;;20.08;9.02;;;9.70;99.90;;;;;;5113602;28;20048;-75
2023/03/19 03:01:45;;;;;;;18.17;8.75;;;9.70;99.90;;;;;;5113345;28;20047;-76
2023/03/19 03:04:13;;;;;;;15.30;7.28;;;9.80;99.90;;;;;;5113482;28;20074;-75
2023/03/19 03:06:39;;;;;;;12.13;5.95;;;9.80;99.90;;;;;;5079447;28;20044;-74
2023/03/19 03:09:05;;;;;;;12.10;5.03;;;9.70;99.90;;;;;;5095394;28;20050;-74
2023/03/19 03:11:31;;;;;;;10.93;5.50;;;9.70;99.90;;;;;;5096087;28;20495;-76
2023/03/19 03:13:57;;;;;;;8.98;4.95;;;9.70;99.90;;;;;;5113072;28;20056;-75
2023/03/19 03:16:23;;;;;;;10.38;4.90;;;9.70;99.90;;;;;;5113848;28;20126;-75
2023/03/19 03:18:48;;;;;;;9.82;4.63;;;9.70;99.90;;;;;;5113279;28;20043;-73
2023/03/19 03:21:18;;;;;;;8.35;4.40;;;9.70;99.90;;;;;;5113206;28;20173;-74
2023/03/19 03:23:44;;;;;;;10.88;4.10;;;9.70;99.90;;;;;;5079784;28;20348;-73
2023/03/19 03:26:11;;;;;;;9.23;4.40;;;9.70;99.90;;;;;;5094921;28;20503;-74
2023/03/19 03:28:37;;;;;;;8.43;4.20;;;9.70;99.90;;;;;;5113218;28;20130;-74
2023/03/19 03:31:02;;;;;;;13.20;4.07;;;9.70;99.90;;;;;;5078420;28;20135;-75
2023/03/19 03:33:29;;;;;;;7.63;3.95;;;9.60;99.90;;;;;;5094716;28;20134;-74
2023/03/19 03:35:55;;;;;;;8.02;3.65;;;9.60;99.90;;;;;;5113150;28;20054;-73
2023/03/19 03:38:22;;;;;;;8.20;3.45;;;9.60;99.90;;;;;;5116563;28;20130;-74
2023/03/19 03:40:51;;;;;;;6.43;3.60;;;9.70;99.90;;;;;;5117021;28;20421;-74
2023/03/19 03:43:18;;;;;;;9.23;3.60;;;9.70;99.90;;;;;;5098798;28;20368;-74
2023/03/19 03:45:44;;;;;;;9.20;3.60;;;9.70;99.90;;;;;;5116409;28;20458;-74
2023/03/19 03:48:10;;;;;;;9.45;3.88;;;9.70;99.90;;;;;;5116864;28;20082;-75
2023/03/19 03:50:36;;;;;;;7.60;3.53;;;9.60;99.90;;;;;;5098927;28;20036;-74
2023/03/19 03:53:02;;;;;;;7.65;3.35;;;9.60;99.90;;;;;;5116539;28;20043;-74
2023/03/19 03:55:27;;;;;;;10.00;3.75;;;9.60;99.90;;;;;;5116511;28;20052;-74
2023/03/19 03:57:53;;;;;;;7.32;3.85;;;9.60;99.90;;;;;;5116445;28;20043;-74
2023/03/19 04:00:19;;;;;;;8.20;3.45;;;9.60;99.90;;;;;;5116690;28;20043;-75
2023/03/19 04:02:45;;;;;;;10.63;4.10;;;9.60;99.90;;;;;;5116161;28;20044;-73
2023/03/19 04:05:11;;;;;;;7.53;3.70;;;9.60;99.90;;;;;;5099062;28;20121;-74
2023/03/19 04:07:37;;;;;;;8.23;3.33;;;9.60;99.90;;;;;;5099216;28;20483;-75
2023/03/19 04:10:04;;;;;;;9.82;4.05;;;9.60;99.90;;;;;;5116244;28;20039;-74
2023/03/19 04:12:30;;;;;;;6.63;3.13;;;9.70;99.90;;;;;;5116943;28;20092;-74
2023/03/19 04:14:56;;;;;;;7.80;3.92;;;9.70;99.90;;;;;;5097660;28;20060;-75
2023/03/19 04:17:22;;;;;;;7.43;3.35;;;9.70;99.90;;;;;;5116230;28;20048;-74
2023/03/19 04:19:48;;;;;;;7.88;3.38;;;9.70;99.90;;;;;;5116300;28;20468;-75
2023/03/19 04:22:14;;;;;;;6.95;3.10;;;9.70;99.90;;;;;;5116180;28;20044;-74
2023/03/19 04:24:40;;;;;;;7.15;3.28;;;9.70;99.90;;;;;;5116699;28;20043;-75
2023/03/19 04:27:07;;;;;;;8.85;3.90;;;9.70;99.90;;;;;;5116544;28;20127;-74
2023/03/19 04:29:33;;;;;;;6.68;3.15;;;9.70;99.90;;;;;;5116135;28;20056;-74
2023/03/19 04:31:59;;;;;;;8.13;3.42;;;9.70;99.90;;;;;;5116253;28;20040;-75
2023/03/19 04:34:25;;;;;;;9.35;3.70;;;9.70;99.90;;;;;;5115985;28;20055;-73
2023/03/19 04:36:51;;;;;;;9.55;3.63;;;9.70;99.90;;;;;;5098513;28;20051;-74
2023/03/19 04:39:17;;;;;;;8.95;3.53;;;9.70;99.90;;;;;;5115959;28;20048;-74
2023/03/19 04:41:44;;;;;;;8.85;3.50;;;9.70;99.90;;;;;;5081583;28;20402;-75
2023/03/19 04:44:10;;;;;;;9.52;4.22;;;9.60;99.90;;;;;;5116023;28;20073;-74
2023/03/19 04:46:36;;;;;;;7.30;3.58;;;9.60;99.90;;;;;;5098516;28;20056;-74
2023/03/19 04:49:01;;;;;;;7.57;3.50;;;9.60;99.90;;;;;;5096891;28;20604;-74
2023/03/19 04:51:27;;;;;;;7.38;3.67;;;9.60;99.90;;;;;;5097499;28;20675;-74
2023/03/19 04:53:53;;;;;;;7.57;3.78;;;9.50;99.90;;;;;;5115550;28;20055;-75
2023/03/19 04:56:19;;;;;;;8.27;3.65;;;9.50;99.90;;;;;;5097847;28;20036;-74
2023/03/19 04:58:45;;;;;;;8.63;3.65;;;9.40;99.90;;;;;;5116000;28;20051;-75
2023/03/19 05:01:12;;;;;;;9.55;4.20;;;9.30;99.90;;;;;;5096845;28;20043;-75
2023/03/19 05:03:38;;;;;;;8.38;4.03;;;9.30;99.90;;;;;;5115790;28;20044;-74
2023/03/19 05:06:04;;;;;;;9.15;4.13;;;9.20;99.90;;;;;;5097522;28;20434;-74
2023/03/19 05:08:30;;;;;;;8.73;4.13;;;9.30;99.90;;;;;;5115788;28;20130;-75
2023/03/19 05:10:56;;;;;;;8.15;3.75;;;9.20;99.90;;;;;;5115083;28;20048;-75
2023/03/19 05:13:22;;;;;;;9.10;4.32;;;9.20;99.90;;;;;;5097192;28;20404;-75
2023/03/19 05:15:47;;;;;;;8.93;4.22;;;9.10;99.90;;;;;;5080034;28;20051;-74
2023/03/19 05:18:13;;;;;;;8.98;4.75;;;9.00;99.90;;;;;;5115085;28;20051;-74
2023/03/19 05:20:39;;;;;;;10.32;4.70;;;9.00;99.90;;;;;;5114845;28;20044;-74
2023/03/19 05:23:06;;;;;;;11.40;4.72;;;8.90;99.90;;;;;;5096717;28;20088;-74
2023/03/19 05:25:34;;;;;;;10.80;4.63;;;8.80;99.90;;;;;;5114553;28;20491;-75
2023/03/19 05:28:00;;;;;;;9.88;4.18;;;8.70;99.90;;;;;;5114929;28;20044;-73
2023/03/19 05:30:26;;;;;;;11.65;4.60;;;8.70;99.90;;;;;;5097073;28;20112;-74
2023/03/19 05:32:52;;;;;;;8.73;4.88;;;8.70;99.90;;;;;;5114882;28;20058;-75
2023/03/19 05:35:18;;;;;;;10.10;4.88;;;8.60;99.90;;;;;;5115602;28;20442;-75
2023/03/19 05:37:44;;;;;;;11.13;5.00;;;8.50;99.90;;;;;;5080451;28;20135;-74
2023/03/19 05:40:11;;;;;;;12.18;5.55;;;8.40;99.90;;;;;;5114447;28;20078;-73
2023/03/19 05:42:37;;;;;;;11.95;5.50;;;8.40;99.90;;;;;;5113809;28;20051;-75
2023/03/19 05:45:04;;;;;;;12.48;5.80;;;8.40;99.90;;;;;;5079676;28;20049;-75
2023/03/19 05:47:30;;;;;;;13.93;5.88;;;8.40;99.90;;;;;;5114387;28;20090;-74
2023/03/19 05:49:56;;;;;;;13.10;5.95;;;8.30;99.90;;;;;;5114877;28;20371;-74
2023/03/19 05:52:22;;;;;;;16.70;6.10;;;8.30;99.90;;;;;;5115105;28;20039;-75
2023/03/19 05:54:48;;;;;;;13.45;6.50;;;8.40;99.90;;;;;;5097139;28;20444;-74
2023/03/19 05:57:15;;;;;;;17.52;6.68;;;8.40;99.90;;;;;;5114325;28;20104;-76
2023/03/19 05:59:42;;;;;;;13.75;6.30;;;8.40;99.90;;;;;;5113876;28;20059;-73
2023/03/19 06:02:08;;;;;;;13.63;6.60;;;8.30;99.90;;;;;;5113771;28;20044;-76
2023/03/19 06:04:34;;;;;;;15.75;7.22;;;8.30;99.90;;;;;;5079175;28;20054;-73
2023/03/19 06:07:00;;;;;;;14.55;6.88;;;8.30;99.90;;;;;;5095907;28;20518;-74
2023/03/19 06:09:26;;;;;;;15.90;6.68;;;8.20;99.90;;;;;;5114891;28;20124;-75
2023/03/19 06:11:51;;;;;;;13.77;7.32;;;8.30;99.90;;;;;;5114055;28;20044;-74
2023/03/19 06:14:17;;;;;;;16.33;7.50;;;8.20;99.90;;;;;;5114376;28;20055;-75
2023/03/19 06:16:43;;;;;;;19.45;8.60;;;8.20;99.90;;;;;;5114065;28;20089;-74
2023/03/19 06:19:09;;;;;;;17.83;8.05;;;8.30;99.90;;;;;;5079891;28;20093;-75
2023/03/19 06:21:35;;;;;;;18.80;8.95;;;8.20;99.90;;;;;;5113807;28;20390;-74
2023/03/19 06:24:01;;;;;;;17.67;8.00;;;8.30;99.90;;;;;;5114438;28;20459;-75
2023/03/19 06:26:27;;;;;;;18.13;8.68;;;8.30;99.90;;;;;;5113922;28;20120;-74
2023/03/19 06:28:53;;;;;;;17.17;8.35;;;8.30;99.90;;;;;;5114543;28;20043;-74
2023/03/19 06:31:19;;;;;;;21.05;9.65;;;8.30;99.90;;;;;;5095958;28;20087;-74
2023/03/19 06:33:45;;;;;;;20.73;8.90;;;8.30;99.90;;;;;;5114160;28;20142;-74
2023/03/19 06:36:11;;;;;;;20.55;10.20;;;8.30;99.90;;;;;;5113823;28;20090;-73
2023/03/19 06:38:36;;;;;;;28.45;10.27;;;8.30;99.90;;;;;;5097101;28;20044;-72
2023/03/19 06:41:02;;;;;;;22.27;9.63;;;8.30;99.90;;;;;;5117692;28;20082;-76
2023/03/19 06:43:28;;;;;;;22.08;10.20;;;8.30;99.90;;;;;;5082418;28;20039;-74
2023/03/19 06:45:54;;;;;;;24.95;10.77;;;8.30;99.90;;;;;;5098251;28;20055;-74
2023/03/19 06:48:20;;;;;;;23.63;10.48;;;8.30;99.90;;;;;;5115388;28;20167;-74
2023/03/19 06:50:46;;;;;;;22.02;10.32;;;8.30;99.90;;;;;;5096264;28;20044;-75
2023/03/19 06:53:14;;;;;;;22.23;9.18;;;8.40;99.90;;;;;;5096245;28;20058;-75
2023/03/19 06:55:40;;;;;;;23.88;9.13;;;8.50;99.90;;;;;;5113766;28;20040;-73
2023/03/19 06:58:06;;;;;;;22.35;9.43;;;8.60;99.90;;;;;;5113739;28;20050;-75
2023/03/19 07:00:32;;;;;;;29.30;10.10;;;8.70;99.90;;;;;;5095571;28;20540;-74
2023/03/19 07:02:58;;;;;;;19.45;8.73;;;8.80;99.90;;;;;;5095883;28;20047;-73
2023/03/19 07:05:24;;;;;;;19.42;9.13;;;8.90;99.90;;;;;;5096528;28;20047;-75
2023/03/19 07:07:50;;;;;;;23.08;10.18;;;9.00;99.90;;;;;;5095904;28;20429;-74
2023/03/19 07:10:20;;;;;;;24.63;9.85;;;9.10;99.90;;;;;;5113765;28;20050;-73
2023/03/19 07:12:46;;;;;;;22.90;9.60;;;9.20;99.90;;;;;;5116241;28;20040;-74
2023/03/19 07:15:12;;;;;;;21.40;10.07;;;9.20;99.90;;;;;;5098833;28;20051;-75
2023/03/19 07:17:37;;;;;;;23.20;10.38;;;9.30;99.90;;;;;;5117497;28;20059;-76
2023/03/19 07:20:03;;;;;;;23.00;10.38;;;9.40;99.90;;;;;;5117599;28;20043;-75
2023/03/19 07:22:29;;;;;;;23.00;10.20;;;9.60;99.90;;;;;;5117306;28;20044;-75
2023/03/19 07:24:55;;;;;;;24.40;10.63;;;9.70;99.90;;;;;;5117262;28;20097;-75
2023/03/19 07:27:21;;;;;;;24.88;10.73;;;9.80;99.90;;;;;;5098967;28;20051;-74
2023/03/19 07:29:47;;;;;;;22.40;10.35;;;9.80;99.90;;;;;;5117658;28;20040;-76
2023/03/19 07:32:12;;;;;;;24.10;11.18;;;9.80;99.90;;;;;;5098782;28;20502;-75
2023/03/19 07:34:38;;;;;;;22.58;10.20;;;9.70;99.90;;;;;;5115846;28;20047;-75
2023/03/19 07:37:05;;;;;;;23.17;10.57;;;9.70;99.90;;;;;;5098790;28;20047;-75
2023/03/19 07:39:30;;;;;;;23.70;11.02;;;9.70;99.90;;;;;;5116948;28;20055;-73
2023/03/19 07:41:56;;;;;;;27.92;11.07;;;9.80;99.90;;;;;;5115605;28;20112;-74
2023/03/19 07:44:22;;;;;;;25.42;10.80;;;9.90;99.90;;;;;;5116526;28;20044;-75
2023/03/19 07:46:47;;;;;;;24.20;11.00;;;10.00;99.90;;;;;;5117065;28;20054;-76
2023/03/19 07:49:13;;;;;;;23.65;11.13;;;10.00;99.90;;;;;;5117041;28;20084;-75
2023/03/19 07:51:39;;;;;;;23.50;11.10;;;10.00;99.90;;;;;;5117319;28;20059;-75
2023/03/19 07:54:05;;;;;;;27.13;11.05;;;9.90;99.90;;;;;;5116705;28;20137;-76
2023/03/19 07:56:31;;;;;;;26.98;11.95;;;9.90;99.90;;;;;;5098361;28;20048;-75
2023/03/19 07:58:58;;;;;;;24.77;11.77;;;9.90;99.90;;;;;;5116807;28;20050;-74
2023/03/19 08:01:25;;;;;;;28.05;12.05;;;9.90;99.90;;;;;;5098566;28;20043;-75
2023/03/19 08:03:51;;;;;;;28.27;13.10;;;10.00;99.90;;;;;;5098663;28;20135;-75
2023/03/19 08:06:16;;;;;;;27.83;12.55;;;10.10;99.90;;;;;;5116897;28;20138;-75
2023/03/19 08:08:42;;;;;;;27.25;12.18;;;10.10;99.90;;;;;;5116484;28;20051;-74
2023/03/19 08:11:08;;;;;;;28.33;12.52;;;10.30;99.90;;;;;;5115408;28;20348;-75
2023/03/19 08:13:34;;;;;;;31.13;12.35;;;10.40;99.90;;;;;;5098372;28;20071;-75
2023/03/19 08:16:00;;;;;;;27.98;13.30;;;10.50;99.90;;;;;;5111432;28;20067;-74
2023/03/19 08:18:26;;;;;;;27.23;12.63;;;10.70;99.90;;;;;;5095889;28;20551;-75
2023/03/19 08:20:51;;;;;;;27.27;11.80;;;11.00;99.90;;;;;;5095807;28;20055;-75
2023/03/19 08:23:18;;;;;;;24.88;11.15;;;11.20;99.90;;;;;;5093783;28;20044;-76
2023/03/19 08:25:44;;;;;;;22.43;10.27;;;11.40;99.90;;;;;;5095791;28;20040;-75
2023/03/19 08:28:10;;;;;;;26.27;11.88;;;11.40;99.90;;;;;;5094551;28;20365;-76
2023/03/19 08:30:37;;;;;;;24.98;11.70;;;11.40;99.90;;;;;;5095628;28;20051;-76
2023/03/19 08:33:03;;;;;;;21.15;9.95;;;11.40;99.90;;;;;;5095319;28;20071;-76
2023/03/19 08:35:29;;;;;;;22.65;10.85;;;11.50;99.90;;;;;;5095515;28;20086;-74
2023/03/19 08:37:55;;;;;;;21.65;9.63;;;11.50;99.90;;;;;;5095779;28;20059;-75
2023/03/19 08:40:22;;;;;;;21.70;10.80;;;11.60;99.90;;;;;;5094028;28;20044;-75
2023/03/19 08:42:47;;;;;;;21.83;10.60;;;11.70;99.90;;;;;;5095279;28;20140;-75
2023/03/19 08:45:14;;;;;;;20.65;9.48;;;11.80;99.90;;;;;;5094866;28;20079;-76
2023/03/19 08:47:41;;;;;;;23.73;10.45;;;11.80;99.90;;;;;;5093895;28;20048;-74
2023/03/19 08:50:07;;;;;;;23.25;10.45;;;11.90;99.90;;;;;;5095069;28;20055;-75
2023/03/19 08:52:33;;;;;;;22.95;10.68;;;12.00;99.90;;;;;;5095020;28;20050;-76
2023/03/19 08:54:59;;;;;;;19.55;10.63;;;12.00;99.90;;;;;;5094018;28;20048;-74
2023/03/19 08:57:25;;;;;;;20.30;10.23;;;11.90;99.90;;;;;;5094847;28;20495;-77
2023/03/19 08:59:54;;;;;;;23.10;11.30;;;12.00;99.90;;;;;;5093706;28;20137;-75
2023/03/19 09:02:19;;;;;;;20.70;10.25;;;12.00;99.90;;;;;;5077318;28;20089;-76
2023/03/19 09:04:45;;;;;;;21.42;10.95;;;12.10;99.90;;;;;;5093621;28;20044;-75
2023/03/19 09:07:14;;;;;;;22.83;10.25;;;12.20;99.90;;;;;;5095599;28;20059;-75
2023/03/19 09:09:40;;;;;;;19.25;8.90;;;12.20;99.90;;;;;;5095156;28;20163;-75
2023/03/19 09:12:08;;;;;;;19.88;10.23;;;12.20;99.90;;;;;;5094905;28;20126;-75
2023/03/19 09:14:35;;;;;;;19.92;10.05;;;12.50;99.90;;;;;;5101995;28;20043;-77
2023/03/19 09:17:01;;;;;;;20.15;9.95;;;12.70;99.90;;;;;;5115675;28;20048;-75
2023/03/19 09:19:27;;;;;;;18.98;9.95;;;12.80;99.90;;;;;;5115033;28;20047;-75
2023/03/19 09:21:52;;;;;;;17.77;9.27;;;12.80;99.90;;;;;;5096671;28;20069;-75
2023/03/19 09:24:19;;;;;;;17.85;9.10;;;12.90;99.90;;;;;;5096850;28;20047;-76
2023/03/19 09:26:45;;;;;;;17.27;9.02;;;12.90;99.90;;;;;;5115038;28;20486;-73
2023/03/19 09:29:11;;;;;;;18.13;9.52;;;12.90;99.90;;;;;;5080182;28;20060;-74
2023/03/19 09:31:38;;;;;;;23.38;9.55;;;12.80;99.90;;;;;;5115794;28;20043;-76
2023/03/19 09:34:05;;;;;;;18.52;9.25;;;12.90;99.90;;;;;;5097619;28;20048;-76
2023/03/19 09:36:32;;;;;;;16.90;8.88;;;12.90;99.90;;;;;;5114484;28;20399;-75
2023/03/19 09:38:58;;;;;;;20.33;9.02;;;12.90;99.90;;;;;;5114624;28;20043;-74
2023/03/19 09:41:29;;;;;;;19.27;9.23;;;12.80;99.90;;;;;;5115189;28;20043;-74
2023/03/19 09:43:58;;;;;;;19.77;9.40;;;12.80;99.90;;;;;;5115058;28;20043;-75
2023/03/19 09:46:36;;;;;;;17.45;9.55;;;12.80;99.90;;;;;;5114372;28;20047;-74
2023/03/19 09:49:10;;;;;;;18.83;9.05;;;12.80;99.90;;;;;;5115081;28;20395;-76
2023/03/19 09:51:53;;;;;;;19.55;9.20;;;12.90;99.90;;;;;;5097185;28;20062;-74
2023/03/19 09:54:28;;;;;;;19.65;9.57;;;13.00;99.90;;;;;;5097040;28;20054;-75
2023/03/19 09:56:54;;;;;;;16.38;8.73;;;13.00;99.90;;;;;;5115231;28;20376;-73
2023/03/19 09:59:25;;;;;;;15.60;8.80;;;13.10;99.90;;;;;;5114325;28;20086;-76
2023/03/19 10:02:05;;;;;;;16.55;8.50;;;13.20;99.90;;;;;;5114122;28;20040;-75
2023/03/19 10:04:50;;;;;;;17.67;9.05;;;13.10;99.90;;;;;;5114136;28;20048;-74
2023/03/19 10:07:41;;;;;;;16.45;8.90;;;13.40;99.90;;;;;;5114282;28;20040;-74
2023/03/19 10:10:37;;;;;;;17.05;8.80;;;13.50;99.90;;;;;;5096090;28;20054;-75
2023/03/19 10:13:10;;;;;;;15.45;8.35;;;13.50;99.90;;;;;;5115006;28;20059;-75
2023/03/19 10:15:39;;;;;;;14.82;8.50;;;13.60;99.90;;;;;;5114552;28;20056;-75
2023/03/19 10:18:18;;;;;;;17.75;9.40;;;13.60;99.90;;;;;;5113721;28;20047;-74
2023/03/19 10:20:54;;;;;;;20.60;10.27;;;13.30;99.90;;;;;;5113919;28;20047;-76
2023/03/19 10:23:44;;;;;;;18.95;9.68;;;13.50;99.90;;;;;;5096881;28;20364;-75
2023/03/19 10:26:14;;;;;;;17.77;9.57;;;13.80;99.90;;;;;;5114155;28;20039;-76
2023/03/19 10:28:49;;;;;;;17.85;9.57;;;14.00;99.90;;;;;;5114388;28;20047;-76
2023/03/19 10:31:25;;;;;;;16.55;9.07;;;13.80;99.90;;;;;;5079000;28;20047;-74
2023/03/19 10:34:17;;;;;;;20.85;10.57;;;14.00;99.90;;;;;;5113843;28;20103;-75
2023/03/19 10:36:43;;;;;;;19.88;10.45;;;14.10;99.90;;;;;;5079331;28;20054;-76
2023/03/19 10:39:09;;;;;;;19.65;10.18;;;14.30;99.90;;;;;;5113797;28;20040;-76
2023/03/19 10:41:56;;;;;;;17.83;10.48;;;14.20;99.90;;;;;;5096147;28;20043;-75
2023/03/19 10:44:44;;;;;;;17.60;10.00;;;14.30;99.90;;;;;;5113664;28;20057;-75
2023/03/19 10:47:13;;;;;;;18.77;9.77;;;14.30;99.90;;;;;;5115718;28;20467;-76
2023/03/19 10:49:38;;;;;;;17.05;8.65;;;14.30;99.90;;;;;;5117687;28;20044;-77
2023/03/19 10:52:15;;;;;;;18.92;9.88;;;14.50;99.90;;;;;;5099611;28;20051;-74
2023/03/19 10:54:43;;;;;;;19.45;10.20;;;14.30;99.90;;;;;;5117712;28;20051;-76
2023/03/19 10:57:22;;;;;;;18.00;9.68;;;14.30;99.90;;;;;;5099931;28;20055;-75
2023/03/19 10:59:48;;;;;;;21.20;10.27;;;14.10;99.90;;;;;;5117513;28;20560;-76
2023/03/19 11:02:19;;;;;;;18.67;9.60;;;14.10;99.90;;;;;;5117622;28;20075;-75
2023/03/19 11:04:45;;;;;;;18.95;9.10;;;14.20;99.90;;;;;;5110604;28;20035;-75
2023/03/19 11:07:20;;;;;;;18.67;9.75;;;14.20;99.90;;;;;;5099817;28;20043;-74
2023/03/19 11:09:50;;;;;;;18.33;9.32;;;14.50;99.90;;;;;;5065996;28;20062;-75
2023/03/19 11:12:21;;;;;;;19.15;10.07;;;14.50;99.90;;;;;;5117519;28;20160;-75
2023/03/19 11:14:52;;;;;;;19.33;10.20;;;14.40;99.90;;;;;;5099012;28;20388;-75
2023/03/19 11:17:36;;;;;;;17.65;9.82;;;14.50;99.90;;;;;;5100027;28;20043;-76
2023/03/19 11:20:19;;;;;;;19.67;9.90;;;14.50;99.90;;;;;;5117217;28;20043;-75
2023/03/19 11:22:46;;;;;;;18.92;9.95;;;14.60;99.90;;;;;;5117476;28;20395;-74
2023/03/19 11:25:27;;;;;;;19.42;10.05;;;14.70;99.90;;;;;;5099242;28;20054;-74
2023/03/19 11:28:07;;;;;;;18.67;9.45;;;14.90;99.90;;;;;;5117535;28;20435;-74
2023/03/19 11:30:57;;;;;;;19.65;10.35;;;15.30;99.90;;;;;;5099240;28;20488;-75
2023/03/19 11:33:53;;;;;;;21.75;10.85;;;15.30;99.90;;;;;;5117443;28;20447;-75
2023/03/19 11:36:37;;;;;;;20.08;10.88;;;15.30;99.90;;;;;;5116366;28;20058;-76
2023/03/19 11:39:21;;;;;;;21.77;10.38;;;15.50;99.90;;;;;;5117011;28;20082;-75
2023/03/19 11:42:22;;;;;;;23.67;11.02;;;15.40;99.90;;;;;;5116962;28;20079;-74
2023/03/19 11:45:09;;;;;;;19.17;10.45;;;15.10;99.90;;;;;;5117519;28;20051;-74
2023/03/19 11:48:01;;;;;;;19.42;10.52;;;15.20;99.90;;;;;;5115897;28;20052;-74
2023/03/19 11:50:43;;;;;;;19.52;10.30;;;14.80;99.90;;;;;;5117425;28;20086;-74
2023/03/19 11:53:30;;;;;;;24.85;10.52;;;14.70;99.90;;;;;;5117400;28;20052;-75
2023/03/19 11:56:07;;;;;;;17.65;10.40;;;14.70;99.90;;;;;;5098664;28;20433;-74
2023/03/19 11:58:57;;;;;;;19.92;10.00;;;14.50;99.90;;;;;;5116601;28;20046;-74
2023/03/19 12:01:51;;;;;;;23.92;12.00;;;14.60;99.90;;;;;;5116618;28;20040;-73
2023/03/19 12:04:38;;;;;;;21.35;10.88;;;14.50;99.90;;;;;;5078009;28;20051;-75
2023/03/19 12:07:31;;;;;;;24.95;11.18;;;14.30;99.90;;;;;;5099190;28;20051;-73
2023/03/19 12:10:05;;;;;;;21.25;11.65;;;14.30;99.90;;;;;;5099258;28;20055;-74
2023/03/19 12:13:07;;;;;;;19.58;10.80;;;14.30;99.90;;;;;;5098378;28;20089;-74
2023/03/19 12:15:51;;;;;;;21.10;10.88;;;14.40;99.90;;;;;;5116739;28;20519;-75
2023/03/19 12:18:36;;;;;;;25.25;12.35;;;14.80;99.90;;;;;;5116211;28;20126;-74
2023/03/19 12:21:13;;;;;;;22.30;10.95;;;14.70;99.90;;;;;;5116573;28;20043;-75
2023/03/19 12:24:11;;;;;;;21.33;11.02;;;15.00;99.90;;;;;;5116356;28;20051;-74
2023/03/19 12:27:03;;;;;;;28.00;10.82;;;14.90;99.90;;;;;;5116760;28;20044;-74
2023/03/19 12:29:53;;;;;;;22.63;11.70;;;15.20;99.90;;;;;;5094318;28;20051;-75
2023/03/19 12:32:25;;;;;;;24.77;11.43;;;15.10;99.90;;;;;;5098117;28;20055;-75
2023/03/19 12:35:12;;;;;;;23.83;11.27;;;15.20;99.90;;;;;;5116843;28;20047;-74
2023/03/19 12:37:58;;;;;;;21.30;10.70;;;15.00;99.90;;;;;;5116155;28;20055;-73
2023/03/19 12:40:24;;;;;;;24.55;12.45;;;14.70;99.90;;;;;;5098975;28;20044;-74
2023/03/19 12:42:50;;;;;;;22.05;11.88;;;14.70;99.90;;;;;;5118504;28;20487;-73
2023/03/19 12:45:37;;;;;;;23.65;11.80;;;14.50;99.90;;;;;;5120522;28;20055;-76
2023/03/19 12:48:15;;;;;;;23.42;11.18;;;14.50;99.90;;;;;;5120596;28;20058;-74
2023/03/19 12:50:45;;;;;;;26.30;12.95;;;14.70;99.90;;;;;;5100905;28;20491;-73